Time;durP1;ratioP1;P1;durP2;ratioP2;P2;SDS_P1;SDS_P2;PMS_P1;PMS_P2;Temp;Humidity;BMP_temperature;BMP_pressure;BME280_temperature;BME280_humidity;BME280_pressure;Samples;Min_cycle;Max_cycle;Signal;HPM_P1;HPM_P2
2022/01/30 00:01:45;;;;;;;3.37;2.73;;;5.70;99.90;;;;;;5062779;28;20211;-91
2022/01/30 00:04:12;;;;;;;2.53;2.33;;;5.70;99.90;;;;;;5091213;28;20194;-92
2022/01/30 00:06:38;;;;;;;2.33;2.13;;;5.60;99.90;;;;;;5092896;28;20188;-92
2022/01/30 00:09:06;;;;;;;2.90;2.10;;;5.60;99.90;;;;;;5083259;28;20233;-93
2022/01/30 00:11:36;;;;;;;2.77;2.50;;;5.70;99.90;;;;;;5086867;28;20192;-94
2022/01/30 00:14:04;;;;;;;2.50;2.30;;;5.70;99.90;;;;;;5101724;28;20187;-91
2022/01/30 00:16:34;;;;;;;3.20;2.67;;;5.70;99.90;;;;;;5110362;28;20195;-91
2022/01/30 00:21:49;;;;;;;2.80;2.40;;;5.70;99.90;;;;;;5104527;28;20664;-92
2022/01/30 00:24:32;;;;;;;3.43;2.60;;;5.80;99.90;;;;;;5083200;28;20188;-93
2022/01/30 00:26:58;;;;;;;3.00;2.70;;;5.70;99.90;;;;;;5105290;28;20210;-92
2022/01/30 00:29:23;;;;;;;2.90;2.70;;;5.70;99.90;;;;;;5108121;28;20724;-93
2022/01/30 00:31:50;;;;;;;2.77;2.57;;;5.80;99.90;;;;;;5095676;28;20378;-93
2022/01/30 00:34:15;;;;;;;2.97;2.47;;;5.80;99.90;;;;;;5055515;28;20191;-93
2022/01/30 00:36:41;;;;;;;3.60;2.50;;;5.80;99.90;;;;;;5059778;28;20187;-92
2022/01/30 00:39:07;;;;;;;2.53;2.33;;;5.80;99.90;;;;;;5085339;28;20207;-93
2022/01/30 00:41:33;;;;;;;2.37;2.17;;;5.80;99.90;;;;;;5103063;28;20211;-93
2022/01/30 00:43:58;;;;;;;2.83;2.00;;;5.90;99.90;;;;;;5086480;28;20687;-91
2022/01/30 00:46:24;;;;;;;2.63;2.43;;;6.00;99.90;;;;;;5070286;28;20232;-91
2022/01/30 00:48:50;;;;;;;3.27;2.50;;;5.90;99.90;;;;;;5083832;28;20345;-93
2022/01/30 00:51:16;;;;;;;2.70;2.37;;;5.90;99.90;;;;;;5095999;28;20194;-93
2022/01/30 00:53:43;;;;;;;2.80;2.40;;;5.80;99.90;;;;;;5103212;28;20775;-92
2022/01/30 00:56:08;;;;;;;2.50;2.30;;;5.80;99.90;;;;;;5104121;28;20187;-92
2022/01/30 00:58:34;;;;;;;3.00;2.30;;;5.80;99.90;;;;;;5099971;28;20275;-93
2022/01/30 01:01:00;;;;;;;2.93;2.47;;;6.00;99.90;;;;;;5078852;28;20689;-93
2022/01/30 01:03:25;;;;;;;2.63;2.33;;;6.00;99.90;;;;;;5080371;28;20287;-93
2022/01/30 01:05:52;;;;;;;2.67;2.43;;;6.00;99.90;;;;;;5096217;28;20191;-92
2022/01/30 01:08:31;;;;;;;3.00;2.23;;;6.00;99.90;;;;;;5075221;28;20218;-92
2022/01/30 01:20:48;;;;;;;2.60;2.27;;;6.00;99.90;;;;;;5076916;28;20239;-92
2022/01/30 01:24:59;;;;;;;2.40;2.20;;;5.70;99.90;;;;;;5100075;28;20197;-92
2022/01/30 01:27:24;;;;;;;2.87;2.33;;;5.80;99.90;;;;;;5083950;28;20198;-92
2022/01/30 01:29:50;;;;;;;3.37;2.40;;;5.70;99.90;;;;;;5097168;28;20256;-92
2022/01/30 01:32:15;;;;;;;3.20;2.20;;;5.60;99.90;;;;;;5065125;28;20231;-91
2022/01/30 01:34:42;;;;;;;2.73;2.53;;;5.70;99.90;;;;;;5080253;28;20228;-92
2022/01/30 01:37:10;;;;;;;2.60;2.40;;;5.60;99.90;;;;;;5049027;28;20194;-92
2022/01/30 01:39:36;;;;;;;3.00;2.43;;;5.60;99.90;;;;;;5081471;28;20183;-93
2022/01/30 01:42:02;;;;;;;2.63;2.43;;;5.60;99.90;;;;;;5080566;28;20256;-92
2022/01/30 01:44:45;;;;;;;3.23;2.30;;;5.60;99.90;;;;;;5103947;28;20888;-93
2022/01/30 01:47:12;;;;;;;2.17;1.97;;;5.50;99.90;;;;;;5086257;28;20194;-93
2022/01/30 01:49:39;;;;;;;2.77;2.23;;;5.60;99.90;;;;;;5066747;28;20257;-93
2022/01/30 01:52:19;;;;;;;2.80;2.57;;;5.60;99.90;;;;;;5074706;28;20192;-93
2022/01/30 01:54:52;;;;;;;2.40;2.20;;;5.60;99.90;;;;;;5081712;28;20285;-92
2022/01/30 01:57:19;;;;;;;2.07;1.90;;;5.50;99.90;;;;;;5071778;28;20199;-92
2022/01/30 01:59:45;;;;;;;2.30;2.10;;;5.60;99.90;;;;;;5062503;28;20289;-93
2022/01/30 02:02:11;;;;;;;2.47;2.27;;;5.60;99.90;;;;;;5066248;28;20689;-92
2022/01/30 02:04:39;;;;;;;2.20;2.00;;;5.70;99.90;;;;;;5094453;28;20190;-92
2022/01/30 02:07:32;;;;;;;2.10;1.90;;;5.70;99.90;;;;;;5080077;28;20533;-92
2022/01/30 02:09:51;;;;;;;2.80;2.13;;;5.60;99.90;;;;;;5084544;28;20445;-91
2022/01/30 02:12:19;;;;;;;2.53;2.20;;;5.70;99.90;;;;;;5098775;28;20179;-92
2022/01/30 02:15:05;;;;;;;2.20;2.00;;;5.70;99.90;;;;;;5092907;28;20287;-92
2022/01/30 02:25:55;;;;;;;2.30;2.10;;;5.50;99.90;;;;;;5077226;28;20218;-93
2022/01/30 02:28:21;;;;;;;3.17;2.37;;;5.40;99.90;;;;;;5068251;28;20222;-93
2022/01/30 02:31:10;;;;;;;3.93;2.70;;;5.40;99.90;;;;;;5098915;28;20522;-93
2022/01/30 02:33:36;;;;;;;2.53;2.33;;;5.40;99.90;;;;;;5096895;28;20198;-93
2022/01/30 02:36:02;;;;;;;2.60;2.37;;;5.40;99.90;;;;;;5088156;28;20222;-94
2022/01/30 02:38:28;;;;;;;2.60;2.40;;;5.40;99.90;;;;;;5066233;28;20214;-93
2022/01/30 02:40:56;;;;;;;2.80;2.47;;;5.40;99.90;;;;;;5044461;28;20222;-92
2022/01/30 02:43:28;;;;;;;2.80;2.50;;;5.40;99.90;;;;;;5078923;28;20187;-92
2022/01/30 02:46:09;;;;;;;2.20;2.00;;;5.40;99.90;;;;;;5065740;28;20187;-92
2022/01/30 02:48:53;;;;;;;3.17;2.40;;;5.40;99.90;;;;;;5095035;28;20209;-93
2022/01/30 02:51:22;;;;;;;2.53;2.13;;;5.50;99.90;;;;;;5098462;28;20630;-91
2022/01/30 02:54:02;;;;;;;3.53;2.60;;;5.30;99.90;;;;;;5095319;28;20649;-90
2022/01/30 02:56:28;;;;;;;2.17;2.07;;;5.50;99.90;;;;;;5094854;28;20303;-92
2022/01/30 02:58:54;;;;;;;3.23;2.77;;;5.30;99.90;;;;;;5061388;28;20544;-90
2022/01/30 03:01:20;;;;;;;2.30;2.10;;;5.30;99.90;;;;;;5083212;28;20278;-91
2022/01/30 03:03:45;;;;;;;2.37;2.10;;;5.30;99.90;;;;;;5097379;28;20248;-91
2022/01/30 03:06:11;;;;;;;2.77;2.33;;;5.20;99.90;;;;;;5095633;28;20788;-92
2022/01/30 03:08:37;;;;;;;2.57;2.13;;;5.40;99.90;;;;;;5098303;28;20278;-90
2022/01/30 03:11:04;;;;;;;3.70;2.30;;;5.30;99.90;;;;;;5082082;28;20273;-91
2022/01/30 03:13:29;;;;;;;2.30;2.10;;;5.20;99.90;;;;;;5090668;28;20203;-90
2022/01/30 03:15:56;;;;;;;2.37;2.17;;;5.30;99.90;;;;;;5096478;28;20191;-92
2022/01/30 03:18:22;;;;;;;2.10;1.90;;;5.30;99.90;;;;;;5074373;28;20293;-91
2022/01/30 03:20:48;;;;;;;2.43;2.23;;;5.30;99.90;;;;;;5076048;28;20214;-91
2022/01/30 03:23:14;;;;;;;2.30;2.10;;;5.50;99.90;;;;;;5089627;28;20183;-91
2022/01/30 03:25:40;;;;;;;2.37;2.10;;;5.50;99.90;;;;;;5069969;28;20194;-91
2022/01/30 03:28:06;;;;;;;2.40;2.13;;;5.40;99.90;;;;;;5094926;28;20260;-91
2022/01/30 03:30:32;;;;;;;3.87;2.43;;;5.50;99.90;;;;;;5076435;28;20187;-91
2022/01/30 03:32:59;;;;;;;3.00;2.60;;;5.40;99.90;;;;;;5095873;28;20187;-91
2022/01/30 03:35:25;;;;;;;2.37;2.17;;;5.40;99.90;;;;;;5094864;28;20190;-91
2022/01/30 03:37:51;;;;;;;2.43;2.10;;;5.30;99.90;;;;;;5090648;28;20283;-91
2022/01/30 03:40:17;;;;;;;2.93;2.30;;;5.40;99.90;;;;;;5080192;28;20183;-91
2022/01/30 03:42:42;;;;;;;2.13;1.90;;;5.40;99.90;;;;;;5077249;28;20269;-92
2022/01/30 03:45:08;;;;;;;2.73;2.10;;;5.40;99.90;;;;;;5094005;28;20191;-91
2022/01/30 03:47:34;;;;;;;2.90;2.00;;;5.40;99.90;;;;;;5061783;28;20203;-91
2022/01/30 03:50:00;;;;;;;2.47;2.27;;;5.50;99.90;;;;;;5080500;28;20202;-90
2022/01/30 03:52:25;;;;;;;3.23;2.57;;;5.40;99.90;;;;;;5096326;28;20210;-91
2022/01/30 03:54:51;;;;;;;2.47;2.27;;;5.30;99.90;;;;;;5095413;28;20191;-92
2022/01/30 03:57:17;;;;;;;2.43;2.20;;;5.40;99.90;;;;;;5095004;28;20640;-92
2022/01/30 03:59:42;;;;;;;2.40;2.20;;;5.40;99.90;;;;;;5083012;28;20263;-90
2022/01/30 04:02:08;;;;;;;2.37;2.17;;;5.40;99.90;;;;;;5058257;28;20251;-90
2022/01/30 04:04:34;;;;;;;2.37;2.17;;;5.40;99.90;;;;;;5080422;28;20191;-92
2022/01/30 04:07:00;;;;;;;2.17;1.97;;;5.40;99.90;;;;;;5092357;28;20191;-91
2022/01/30 04:09:27;;;;;;;2.90;2.10;;;5.50;99.90;;;;;;5086929;28;20207;-89
2022/01/30 04:11:54;;;;;;;2.33;2.13;;;5.50;99.90;;;;;;5113456;28;20179;-89
2022/01/30 04:14:20;;;;;;;2.40;2.20;;;5.40;99.90;;;;;;5078702;28;20251;-91
2022/01/30 04:16:46;;;;;;;5.17;2.20;;;5.40;99.90;;;;;;5095523;28;20219;-91
2022/01/30 04:19:12;;;;;;;2.87;2.03;;;5.50;99.90;;;;;;5096290;28;20277;-92
2022/01/30 04:21:38;;;;;;;3.07;2.20;;;5.60;99.90;;;;;;5074877;28;20256;-91
2022/01/30 04:24:04;;;;;;;3.60;2.10;;;5.70;99.90;;;;;;5092517;28;20254;-91
2022/01/30 04:26:30;;;;;;;2.50;2.30;;;5.50;99.90;;;;;;5090349;28;20286;-90
2022/01/30 04:28:56;;;;;;;2.80;2.60;;;5.60;99.90;;;;;;5082954;28;20207;-90
2022/01/30 04:31:22;;;;;;;2.60;1.87;;;5.60;99.90;;;;;;5085847;28;20184;-91
2022/01/30 04:33:48;;;;;;;2.60;2.40;;;5.50;99.90;;;;;;5066784;28;20266;-91
2022/01/30 04:36:16;;;;;;;2.87;2.50;;;5.40;99.90;;;;;;5086929;28;20187;-91
2022/01/30 04:57:41;;;;;;;3.63;2.23;;;5.20;99.90;;;;;;5085058;28;20215;-92
2022/01/30 05:00:27;;;;;;;2.30;2.10;;;5.20;99.90;;;;;;5084229;28;20249;-90
2022/01/30 05:07:49;;;;;;;2.10;1.90;;;5.00;99.90;;;;;;5069836;28;20230;-91
2022/01/30 05:10:15;;;;;;;3.67;2.30;;;5.00;99.90;;;;;;5089801;28;20191;-92
2022/01/30 05:12:48;;;;;;;2.50;2.30;;;5.00;99.90;;;;;;5091654;28;20195;-91
2022/01/30 05:15:17;;;;;;;3.60;2.83;;;4.90;99.90;;;;;;5081574;28;20435;-91
2022/01/30 05:17:43;;;;;;;3.70;2.27;;;5.00;99.90;;;;;;5050104;28;20246;-91
2022/01/30 05:20:09;;;;;;;2.83;2.37;;;5.00;99.90;;;;;;5079151;28;20441;-91
2022/01/30 05:22:36;;;;;;;2.83;2.50;;;5.00;99.90;;;;;;5064338;28;20275;-91
2022/01/30 05:25:02;;;;;;;2.50;2.30;;;5.00;99.90;;;;;;5067832;28;20682;-91
2022/01/30 05:27:28;;;;;;;2.60;2.40;;;5.00;99.90;;;;;;5059671;28;20245;-91
2022/01/30 05:29:54;;;;;;;2.60;2.40;;;5.10;99.90;;;;;;5098667;28;20244;-91
2022/01/30 05:32:20;;;;;;;3.07;2.40;;;5.00;99.90;;;;;;5074952;28;20199;-90
2022/01/30 05:34:46;;;;;;;2.47;2.27;;;5.00;99.90;;;;;;5067153;28;20206;-92
2022/01/30 05:37:16;;;;;;;3.90;2.10;;;5.00;99.90;;;;;;5099127;28;20231;-90
2022/01/30 05:39:42;;;;;;;3.70;2.50;;;5.00;99.90;;;;;;5099444;28;20212;-90
2022/01/30 05:42:11;;;;;;;3.00;2.70;;;4.90;99.90;;;;;;5098037;28;20207;-91
2022/01/30 05:45:26;;;;;;;2.80;2.50;;;4.90;99.90;;;;;;5072970;28;20254;-90
2022/01/30 05:47:33;;;;;;;2.37;2.17;;;4.80;99.90;;;;;;5068417;28;20199;-90
2022/01/30 05:49:59;;;;;;;2.60;2.40;;;4.80;99.90;;;;;;5089474;28;20266;-91
2022/01/30 05:52:25;;;;;;;2.43;2.23;;;4.80;99.90;;;;;;5078033;28;20203;-90
2022/01/30 05:54:50;;;;;;;2.30;2.10;;;4.90;99.90;;;;;;5077314;28;20287;-93
2022/01/30 05:57:16;;;;;;;3.10;2.80;;;4.80;99.90;;;;;;5070808;28;20294;-92
2022/01/30 05:59:42;;;;;;;2.77;2.50;;;4.80;99.90;;;;;;5077549;28;20597;-92
2022/01/30 06:02:08;;;;;;;2.50;2.30;;;4.80;99.90;;;;;;5079401;28;20211;-91
2022/01/30 06:04:33;;;;;;;2.60;2.40;;;4.80;99.90;;;;;;5089530;28;20188;-92
2022/01/30 06:07:00;;;;;;;2.53;2.33;;;4.70;99.90;;;;;;5081806;28;20713;-92
2022/01/30 06:09:26;;;;;;;2.40;2.20;;;4.70;99.90;;;;;;5086575;28;20210;-94
2022/01/30 06:11:51;;;;;;;4.03;2.77;;;4.60;99.90;;;;;;5071155;28;20280;-91
2022/01/30 06:14:22;;;;;;;3.80;2.50;;;4.70;99.90;;;;;;5049924;28;20210;-92
2022/01/30 06:16:49;;;;;;;2.90;2.70;;;4.70;99.90;;;;;;5097883;28;20213;-93
2022/01/30 06:19:18;;;;;;;3.30;2.70;;;4.60;99.90;;;;;;5094936;28;20237;-91
2022/01/30 06:21:44;;;;;;;3.90;2.50;;;4.70;99.90;;;;;;5072674;28;20207;-92
2022/01/30 06:24:10;;;;;;;3.03;2.73;;;4.70;99.90;;;;;;5055222;28;20200;-93
2022/01/30 06:26:35;;;;;;;3.03;2.73;;;4.60;99.90;;;;;;5059021;28;20189;-93
2022/01/30 06:29:01;;;;;;;4.10;2.80;;;4.50;99.90;;;;;;5099660;28;20211;-93
2022/01/30 06:31:27;;;;;;;3.40;3.10;;;4.40;99.90;;;;;;5098224;28;20195;-92
2022/01/30 06:33:53;;;;;;;3.00;2.70;;;4.40;99.90;;;;;;5056876;28;20195;-92
2022/01/30 06:36:19;;;;;;;3.83;2.93;;;4.40;99.90;;;;;;5090635;28;20202;-91
2022/01/30 06:38:44;;;;;;;3.73;2.90;;;4.40;99.90;;;;;;5089568;28;20194;-90
2022/01/30 06:41:10;;;;;;;5.73;3.30;;;4.40;99.90;;;;;;5051621;28;20230;-93
2022/01/30 06:43:36;;;;;;;6.43;2.60;;;4.40;99.90;;;;;;5098668;28;20241;-92
2022/01/30 06:46:03;;;;;;;2.87;2.67;;;4.40;99.90;;;;;;5068615;28;20179;-91
2022/01/30 06:48:29;;;;;;;3.60;3.30;;;4.40;99.90;;;;;;5079482;28;20242;-93
2022/01/30 06:50:54;;;;;;;4.23;2.70;;;4.40;99.90;;;;;;5092228;28;20183;-92
2022/01/30 06:53:20;;;;;;;3.57;3.20;;;4.40;99.90;;;;;;5069668;28;20207;-92
2022/01/30 06:55:46;;;;;;;3.70;3.17;;;4.40;99.90;;;;;;5079466;28;20319;-93
2022/01/30 06:58:13;;;;;;;4.60;3.13;;;4.40;99.90;;;;;;5074162;28;20332;-93
2022/01/30 07:00:38;;;;;;;3.63;3.00;;;4.40;99.90;;;;;;5091029;28;20220;-94
2022/01/30 07:03:04;;;;;;;3.30;3.00;;;4.40;99.90;;;;;;5080966;28;20222;-93
2022/01/30 07:05:30;;;;;;;5.17;3.57;;;4.50;99.90;;;;;;5086850;28;20191;-92
2022/01/30 07:07:56;;;;;;;4.93;3.33;;;4.50;99.90;;;;;;5050962;28;20319;-87
2022/01/30 07:10:22;;;;;;;4.37;2.97;;;4.50;99.90;;;;;;5062472;28;20261;-92
2022/01/30 07:12:48;;;;;;;3.10;2.80;;;4.60;99.90;;;;;;5054028;28;20282;-91
2022/01/30 07:15:14;;;;;;;2.90;2.70;;;4.60;99.90;;;;;;5087558;28;20175;-92
2022/01/30 07:17:41;;;;;;;3.00;2.70;;;4.60;99.90;;;;;;5096234;28;20267;-92
2022/01/30 07:20:08;;;;;;;3.00;2.53;;;4.60;99.90;;;;;;5087090;28;20202;-93
2022/01/30 07:22:34;;;;;;;2.67;2.40;;;4.60;99.90;;;;;;5084620;28;20221;-92
2022/01/30 07:25:00;;;;;;;3.53;2.50;;;4.50;99.90;;;;;;5094485;28;20195;-91
2022/01/30 07:27:26;;;;;;;4.23;2.80;;;4.50;99.90;;;;;;5064781;28;20191;-93
2022/01/30 07:29:52;;;;;;;3.00;2.53;;;4.40;99.90;;;;;;5085887;28;20195;-92
2022/01/30 07:32:18;;;;;;;2.77;2.57;;;4.40;99.90;;;;;;5092339;28;20197;-93
2022/01/30 07:34:45;;;;;;;3.07;2.53;;;4.30;99.90;;;;;;5061095;28;20215;-91
2022/01/30 07:37:12;;;;;;;2.67;2.33;;;4.20;99.90;;;;;;5085589;28;20211;-91
2022/01/30 07:39:38;;;;;;;3.50;3.10;;;4.10;99.90;;;;;;5065120;28;20195;-92
2022/01/30 07:42:05;;;;;;;4.57;2.90;;;4.10;99.90;;;;;;5078044;28;20207;-93
2022/01/30 07:44:30;;;;;;;4.33;2.77;;;4.20;99.90;;;;;;5074230;28;20876;-92
2022/01/30 07:46:56;;;;;;;3.53;2.77;;;4.20;99.90;;;;;;5067795;28;20187;-91
2022/01/30 07:49:22;;;;;;;5.10;2.53;;;4.20;99.90;;;;;;5067369;28;20219;-92
2022/01/30 07:51:48;;;;;;;4.93;3.00;;;4.30;99.90;;;;;;5099556;28;20199;-90
2022/01/30 07:54:14;;;;;;;3.57;2.93;;;4.30;99.90;;;;;;5081437;28;20225;-91
2022/01/30 07:56:40;;;;;;;3.00;2.70;;;4.30;99.90;;;;;;5099066;28;20205;-92
2022/01/30 07:59:05;;;;;;;3.90;3.13;;;4.50;99.90;;;;;;5076655;28;20693;-92
2022/01/30 08:01:31;;;;;;;3.23;2.90;;;4.60;99.90;;;;;;5090081;28;20215;-91
2022/01/30 08:03:58;;;;;;;3.63;2.80;;;4.60;99.90;;;;;;5046410;28;20210;-93
2022/01/30 08:06:24;;;;;;;4.33;2.67;;;4.50;99.90;;;;;;5070480;28;20199;-92
2022/01/30 08:08:49;;;;;;;3.10;2.43;;;4.60;99.90;;;;;;5076239;28;20273;-92
2022/01/30 08:11:15;;;;;;;2.80;2.57;;;4.60;99.90;;;;;;5065920;28;20611;-92
2022/01/30 08:13:41;;;;;;;3.50;2.80;;;4.60;99.90;;;;;;5043668;28;20275;-92
2022/01/30 08:16:07;;;;;;;3.30;2.23;;;4.60;99.90;;;;;;5046805;28;20202;-91
2022/01/30 08:18:36;;;;;;;4.23;3.10;;;4.60;99.90;;;;;;5074838;28;20545;-92
2022/01/30 08:21:05;;;;;;;4.60;4.03;;;4.60;99.90;;;;;;5079485;28;20310;-92
2022/01/30 08:23:33;;;;;;;5.37;4.00;;;4.70;99.90;;;;;;5050318;28;20344;-92
2022/01/30 08:26:00;;;;;;;5.00;3.30;;;4.70;99.90;;;;;;5070546;28;20277;-92
2022/01/30 08:28:26;;;;;;;3.10;2.80;;;4.70;99.90;;;;;;5084648;28;20218;-92
2022/01/30 08:30:52;;;;;;;4.17;3.73;;;4.80;99.90;;;;;;5096846;28;20190;-92
2022/01/30 08:33:18;;;;;;;4.20;3.10;;;4.90;99.90;;;;;;5093487;28;20187;-93
2022/01/30 08:35:45;;;;;;;7.40;3.33;;;4.90;99.90;;;;;;5093522;28;20240;-92
2022/01/30 08:38:15;;;;;;;4.53;3.50;;;5.00;99.90;;;;;;5081209;28;20301;-92
2022/01/30 08:40:41;;;;;;;4.30;3.50;;;5.00;99.90;;;;;;5101633;28;20206;-91
2022/01/30 08:43:07;;;;;;;5.07;3.70;;;5.00;99.90;;;;;;5079845;28;20202;-91
2022/01/30 08:45:32;;;;;;;8.03;4.03;;;5.00;99.90;;;;;;5081412;28;20188;-91
2022/01/30 08:47:58;;;;;;;9.50;4.37;;;5.00;99.90;;;;;;5105797;28;20584;-92
2022/01/30 08:50:24;;;;;;;8.93;3.93;;;4.90;99.90;;;;;;5100411;28;20202;-92
2022/01/30 08:52:51;;;;;;;5.50;3.87;;;5.00;99.90;;;;;;5088605;28;20187;-92
2022/01/30 08:55:18;;;;;;;7.77;3.83;;;5.10;99.90;;;;;;5097395;28;20187;-93
2022/01/30 08:57:44;;;;;;;5.83;4.27;;;5.30;99.90;;;;;;5090985;28;20214;-92
2022/01/30 09:00:12;;;;;;;7.27;4.57;;;5.40;99.90;;;;;;5105995;28;20194;-92
2022/01/30 09:02:39;;;;;;;9.67;4.90;;;5.30;99.90;;;;;;5084608;28;20188;-92
2022/01/30 09:05:06;;;;;;;10.03;5.23;;;5.50;99.90;;;;;;5087177;28;20179;-92
2022/01/30 09:07:32;;;;;;;10.20;5.20;;;5.50;99.90;;;;;;5102072;28;20286;-92
2022/01/30 09:09:58;;;;;;;7.27;4.67;;;5.60;99.90;;;;;;5068978;28;20187;-92
2022/01/30 09:12:24;;;;;;;10.93;5.00;;;5.60;99.90;;;;;;5065040;28;20198;-92
2022/01/30 09:14:51;;;;;;;11.97;5.97;;;5.70;99.90;;;;;;5098003;28;20212;-92
2022/01/30 09:17:17;;;;;;;9.40;4.57;;;5.80;99.90;;;;;;5090222;28;20203;-93
2022/01/30 09:19:45;;;;;;;8.47;4.10;;;5.80;99.90;;;;;;5085306;28;20179;-92
2022/01/30 09:22:13;;;;;;;9.17;4.40;;;5.90;99.90;;;;;;5075293;28;20584;-92
2022/01/30 09:24:39;;;;;;;10.60;4.80;;;5.90;99.90;;;;;;5089670;28;20737;-91
2022/01/30 09:27:07;;;;;;;11.10;4.83;;;6.00;99.90;;;;;;5101173;28;20183;-92
2022/01/30 09:29:35;;;;;;;10.30;5.03;;;6.20;99.90;;;;;;5083074;28;20207;-92
2022/01/30 09:32:02;;;;;;;13.53;6.37;;;6.30;99.90;;;;;;5048031;28;20195;-93
2022/01/30 09:34:28;;;;;;;15.37;5.87;;;6.30;99.90;;;;;;5061732;28;20805;-92
2022/01/30 09:36:54;;;;;;;17.57;5.73;;;6.20;99.90;;;;;;5099086;28;20183;-92
2022/01/30 09:39:20;;;;;;;13.57;5.30;;;6.50;99.90;;;;;;5076969;28;20215;-92
2022/01/30 09:41:49;;;;;;;13.03;5.20;;;6.50;99.90;;;;;;5063181;28;20218;-92
2022/01/30 09:44:17;;;;;;;13.93;4.70;;;6.60;99.90;;;;;;5099532;28;20167;-93
2022/01/30 09:46:44;;;;;;;15.43;5.83;;;6.60;99.90;;;;;;5092111;28;20198;-91
2022/01/30 09:49:11;;;;;;;22.00;6.30;;;6.70;99.90;;;;;;5075085;28;20203;-92
2022/01/30 09:51:38;;;;;;;14.17;5.60;;;6.80;99.90;;;;;;5082947;28;20223;-92
2022/01/30 09:54:06;;;;;;;12.30;5.50;;;6.80;99.90;;;;;;5078467;28;20229;-93
2022/01/30 09:56:32;;;;;;;10.90;5.03;;;6.80;99.90;;;;;;5091301;28;20209;-92
2022/01/30 09:58:57;;;;;;;12.80;5.13;;;6.90;99.90;;;;;;5092077;28;20216;-92
2022/01/30 10:01:30;;;;;;;11.67;5.43;;;6.90;99.90;;;;;;5085468;28;20207;-92
2022/01/30 10:03:56;;;;;;;16.23;5.43;;;7.00;99.90;;;;;;5093132;28;20190;-92
2022/01/30 10:06:25;;;;;;;14.77;5.40;;;7.10;99.90;;;;;;5095358;28;20203;-91
2022/01/30 10:08:55;;;;;;;16.47;4.73;;;7.10;99.90;;;;;;5078001;28;20286;-92
2022/01/30 10:11:32;;;;;;;13.10;4.67;;;7.20;94.50;;;;;;5084791;28;20175;-91
2022/01/30 10:14:10;;;;;;;10.43;4.20;;;7.30;97.30;;;;;;5077347;28;20252;-92
2022/01/30 10:16:49;;;;;;;8.77;4.10;;;7.40;94.80;;;;;;5078378;28;20194;-93
2022/01/30 10:19:23;;;;;;;10.53;3.90;;;7.50;92.20;;;;;;5060898;28;20210;-92
2022/01/30 10:22:01;;;;;;;7.87;3.50;;;7.70;88.50;;;;;;5090123;28;20234;-92
2022/01/30 10:24:28;;;;;;;10.90;4.37;;;7.70;87.00;;;;;;5085865;28;20195;-92
2022/01/30 10:27:02;;;;;;;11.27;3.63;;;7.90;84.70;;;;;;5079438;28;20179;-89
2022/01/30 10:29:31;;;;;;;8.60;4.00;;;8.00;83.90;;;;;;5077542;28;20220;-92
2022/01/30 10:32:05;;;;;;;7.87;3.40;;;8.10;83.60;;;;;;5075445;28;20194;-92
2022/01/30 10:34:33;;;;;;;14.37;3.43;;;8.10;77.70;;;;;;5095264;28;20197;-92
2022/01/30 10:37:19;;;;;;;11.93;4.33;;;8.30;76.00;;;;;;5097886;28;20210;-92
2022/01/30 10:40:11;;;;;;;10.17;4.20;;;8.30;75.10;;;;;;5082718;28;20175;-89
2022/01/30 10:42:51;;;;;;;9.43;3.23;;;8.30;75.30;;;;;;5089918;28;20278;-89
2022/01/30 10:45:32;;;;;;;11.17;3.10;;;8.30;68.60;;;;;;5064415;28;20191;-91
2022/01/30 10:48:11;;;;;;;11.70;3.63;;;8.30;69.10;;;;;;5085359;28;20207;-92
2022/01/30 10:50:43;;;;;;;10.57;3.40;;;8.40;67.70;;;;;;5087216;28;20218;-91
2022/01/30 10:53:21;;;;;;;7.83;3.23;;;8.60;68.50;;;;;;5097660;28;20194;-91
2022/01/30 10:55:48;;;;;;;7.57;3.47;;;8.70;65.90;;;;;;5089898;28;20199;-90
2022/01/30 10:58:17;;;;;;;7.10;2.90;;;8.70;66.40;;;;;;5072110;28;20219;-90
2022/01/30 11:00:51;;;;;;;6.43;2.70;;;8.70;66.10;;;;;;5093925;28;20301;-91
2022/01/30 11:03:35;;;;;;;11.20;3.63;;;8.70;64.70;;;;;;5070808;28;20611;-92
2022/01/30 11:06:02;;;;;;;11.97;3.67;;;8.50;65.90;;;;;;5066310;28;20191;-92
2022/01/30 11:08:33;;;;;;;8.07;3.27;;;8.40;66.20;;;;;;5073443;28;20230;-92
2022/01/30 11:11:09;;;;;;;9.53;3.13;;;8.60;64.10;;;;;;5094946;28;20220;-93
2022/01/30 11:13:47;;;;;;;7.17;3.03;;;8.80;63.00;;;;;;5068570;28;20739;-92
2022/01/30 11:18:59;;;;;;;18.20;7.90;;;9.30;62.50;;;;;;5079802;28;20214;-92
2022/01/30 11:21:28;;;;;;;12.63;5.50;;;9.60;62.10;;;;;;5083502;28;20211;-92
2022/01/30 11:23:57;;;;;;;14.03;7.53;;;9.10;61.40;;;;;;5052552;28;20194;-92
2022/01/30 11:26:23;;;;;;;10.70;5.60;;;8.80;65.00;;;;;;5095117;28;20182;-91
2022/01/30 11:28:50;;;;;;;9.37;4.23;;;8.70;61.90;;;;;;5108492;28;20437;-90
2022/01/30 11:31:16;;;;;;;15.93;8.23;;;8.70;63.00;;;;;;5093344;28;20583;-91
2022/01/30 11:33:44;;;;;;;22.57;13.37;;;9.10;61.10;;;;;;5096022;28;20213;-90
2022/01/30 11:36:10;;;;;;;11.97;5.47;;;9.30;58.90;;;;;;5097650;28;20220;-90
2022/01/30 11:38:37;;;;;;;13.80;5.10;;;9.40;59.60;;;;;;5098090;28;20210;-93
2022/01/30 11:41:14;;;;;;;10.73;3.60;;;9.40;59.10;;;;;;5092277;28;20210;-92
2022/01/30 11:43:41;;;;;;;9.80;4.07;;;9.10;60.70;;;;;;5090545;28;20191;-91
2022/01/30 11:46:14;;;;;;;7.70;3.60;;;8.80;61.20;;;;;;5087183;28;20555;-91
2022/01/30 11:48:41;;;;;;;11.00;5.30;;;8.60;63.10;;;;;;5087108;28;20214;-91
2022/01/30 11:51:08;;;;;;;6.90;2.87;;;8.50;64.10;;;;;;5074472;28;20179;-92
2022/01/30 11:53:36;;;;;;;9.93;3.03;;;8.50;61.50;;;;;;5096037;28;20667;-92
2022/01/30 11:56:04;;;;;;;12.57;8.43;;;8.40;62.30;;;;;;5078401;28;20206;-91
2022/01/30 11:58:37;;;;;;;11.17;4.53;;;8.50;62.40;;;;;;5080176;28;20289;-92
2022/01/30 12:01:25;;;;;;;15.30;8.27;;;8.40;60.30;;;;;;5075112;28;20260;-90
2022/01/30 12:04:11;;;;;;;8.27;3.17;;;8.40;60.60;;;;;;5090729;28;20680;-92
2022/01/30 12:06:41;;;;;;;8.27;3.87;;;8.30;63.30;;;;;;5089945;28;20194;-92
2022/01/30 12:09:27;;;;;;;12.60;4.60;;;8.40;63.00;;;;;;5073857;28;20211;-91
2022/01/30 12:12:03;;;;;;;9.37;4.10;;;8.30;61.40;;;;;;5070980;28;20204;-90
2022/01/30 12:14:43;;;;;;;20.37;14.40;;;8.30;62.00;;;;;;5077436;28;20193;-91
2022/01/30 12:17:09;;;;;;;8.93;3.00;;;8.20;61.60;;;;;;5093425;28;20183;-91
2022/01/30 12:19:39;;;;;;;15.03;8.70;;;8.30;61.40;;;;;;5095123;28;20241;-93
2022/01/30 12:22:16;;;;;;;9.17;3.77;;;8.50;61.20;;;;;;5088885;28;20686;-92
2022/01/30 12:24:47;;;;;;;9.00;3.47;;;8.50;62.10;;;;;;5094433;28;20182;-91
2022/01/30 12:27:13;;;;;;;12.40;3.60;;;8.30;62.70;;;;;;5079820;28;20188;-90
2022/01/30 12:29:48;;;;;;;9.57;4.07;;;8.20;63.80;;;;;;5079942;28;20211;-91
2022/01/30 12:32:23;;;;;;;12.47;4.03;;;8.10;64.40;;;;;;5079564;28;20202;-91
2022/01/30 12:34:55;;;;;;;5.23;3.30;;;8.10;63.60;;;;;;5068989;28;20324;-90
2022/01/30 12:37:28;;;;;;;6.93;3.20;;;8.10;63.20;;;;;;5086647;28;20698;-91
2022/01/30 12:39:55;;;;;;;12.73;6.60;;;8.10;63.60;;;;;;5062109;28;20195;-89
2022/01/30 12:42:22;;;;;;;13.80;7.67;;;8.10;64.40;;;;;;5106542;28;20284;-92
2022/01/30 12:44:49;;;;;;;8.10;3.00;;;8.10;64.00;;;;;;5111345;28;20191;-92
2022/01/30 12:47:16;;;;;;;9.43;5.57;;;8.20;65.50;;;;;;5104089;28;20187;-91
2022/01/30 12:49:51;;;;;;;13.57;5.87;;;8.30;66.20;;;;;;5088078;28;20423;-92
2022/01/30 12:52:36;;;;;;;62.20;49.57;;;8.50;65.20;;;;;;5088206;28;20210;-92
2022/01/30 12:55:10;;;;;;;11.10;5.10;;;8.50;62.80;;;;;;5092895;28;20205;-92
2022/01/30 12:57:36;;;;;;;6.90;3.13;;;8.70;64.10;;;;;;5081907;28;20234;-92
2022/01/30 13:00:06;;;;;;;9.43;4.07;;;9.40;61.00;;;;;;5086754;28;20263;-92
2022/01/30 13:02:37;;;;;;;10.67;3.93;;;10.10;59.50;;;;;;5101668;28;20210;-91
2022/01/30 13:05:04;;;;;;;11.50;6.83;;;10.50;55.30;;;;;;5092072;28;20198;-91
2022/01/30 13:07:30;;;;;;;9.50;4.63;;;10.80;53.90;;;;;;5111659;28;20274;-91
2022/01/30 13:10:13;;;;;;;8.00;3.53;;;10.90;53.00;;;;;;5085198;28;20229;-93
2022/01/30 13:12:42;;;;;;;7.23;2.83;;;11.10;52.30;;;;;;5088094;28;20224;-91
2022/01/30 13:15:21;;;;;;;9.37;4.17;;;10.90;51.80;;;;;;5106053;28;20186;-91
2022/01/30 13:17:47;;;;;;;6.33;3.10;;;10.80;51.70;;;;;;5114499;28;20210;-90
2022/01/30 13:20:14;;;;;;;8.10;2.97;;;9.90;53.30;;;;;;5105165;28;20194;-91
2022/01/30 13:22:43;;;;;;;6.20;3.07;;;9.80;54.40;;;;;;5081273;28;20218;-92
2022/01/30 13:25:16;;;;;;;8.20;3.57;;;9.90;55.90;;;;;;5108210;28;20253;-90
2022/01/30 13:27:44;;;;;;;11.90;3.63;;;10.00;56.60;;;;;;5099298;28;20661;-91
2022/01/30 13:30:10;;;;;;;10.53;3.80;;;10.40;55.00;;;;;;5102021;28;20191;-91
2022/01/30 13:32:38;;;;;;;8.97;4.23;;;10.50;54.70;;;;;;5113019;28;20194;-92
2022/01/30 13:35:11;;;;;;;9.63;3.27;;;10.90;54.20;;;;;;5094398;28;20205;-91
2022/01/30 13:37:38;;;;;;;7.77;3.13;;;10.60;53.00;;;;;;5099427;28;20215;-92
2022/01/30 13:40:39;;;;;;;8.80;3.03;;;10.20;54.40;;;;;;5062956;28;20622;-91
2022/01/30 13:43:14;;;;;;;6.50;2.97;;;10.40;54.40;;;;;;5076229;28;20205;-92
2022/01/30 13:48:19;;;;;;;8.40;3.33;;;11.30;51.80;;;;;;5096449;28;20685;-92
2022/01/30 13:51:03;;;;;;;7.77;3.03;;;11.20;50.50;;;;;;5099906;28;20194;-92
2022/01/30 13:53:31;;;;;;;6.63;3.03;;;10.80;49.70;;;;;;5107818;28;20570;-92
2022/01/30 13:56:09;;;;;;;11.10;3.30;;;10.90;50.40;;;;;;5101216;28;20195;-91